Time;durP1;ratioP1;P1;durP2;ratioP2;P2;SDS_P1;SDS_P2;PMS_P1;PMS_P2;Temp;Humidity;BMP_temperature;BMP_pressure;BME280_temperature;BME280_humidity;BME280_pressure;Samples;Min_cycle;Max_cycle;Signal;HPM_P1;HPM_P2
2021/12/28 00:02:06;;;;;;;1.33;1.20;;;3.20;99.90;;;;;;5056962;28;20116;-86
2021/12/28 00:04:32;;;;;;;0.90;0.90;;;3.20;99.90;;;;;;5059707;28;20036;-87
2021/12/28 00:06:58;;;;;;;1.27;1.17;;;3.20;99.90;;;;;;5045096;28;20044;-86
2021/12/28 00:09:23;;;;;;;1.33;1.23;;;3.30;99.90;;;;;;5045888;28;20044;-87
2021/12/28 00:11:49;;;;;;;0.98;0.95;;;3.20;99.90;;;;;;5074727;28;20037;-88
2021/12/28 00:14:14;;;;;;;1.23;1.17;;;3.30;99.90;;;;;;5038209;28;20115;-88
2021/12/28 00:19:24;;;;;;;1.63;1.52;;;3.30;99.90;;;;;;5059667;28;20049;-88
2021/12/28 00:21:50;;;;;;;1.67;1.52;;;3.30;99.90;;;;;;5056938;28;20633;-87
2021/12/28 00:24:19;;;;;;;2.28;2.08;;;3.30;99.90;;;;;;5044355;28;20037;-87
2021/12/28 00:26:44;;;;;;;1.15;1.10;;;3.30;99.90;;;;;;5079380;28;20040;-86
2021/12/28 00:29:10;;;;;;;1.88;1.77;;;3.40;99.90;;;;;;5047463;28;20198;-88
2021/12/28 00:31:35;;;;;;;1.92;1.80;;;3.40;99.90;;;;;;5060374;28;20051;-87
2021/12/28 00:34:01;;;;;;;1.00;1.00;;;3.40;99.90;;;;;;5053269;28;20281;-88
2021/12/28 00:36:27;;;;;;;0.77;0.77;;;3.40;99.90;;;;;;5058173;28;20045;-89
2021/12/28 00:38:53;;;;;;;1.02;1.02;;;3.40;99.90;;;;;;5043182;28;20094;-88
2021/12/28 00:41:20;;;;;;;1.10;1.10;;;3.40;99.90;;;;;;5049549;28;20203;-87
2021/12/28 00:43:46;;;;;;;1.67;1.55;;;3.40;99.90;;;;;;5055817;28;20048;-87
2021/12/28 00:46:11;;;;;;;1.20;1.10;;;3.50;99.90;;;;;;5062232;28;20404;-87
2021/12/28 00:48:37;;;;;;;1.52;1.42;;;3.50;99.90;;;;;;5041308;28;20033;-88
2021/12/28 00:51:04;;;;;;;1.83;1.17;;;3.50;99.90;;;;;;5037690;28;20051;-87
2021/12/28 00:53:30;;;;;;;0.70;0.70;;;3.50;99.90;;;;;;5049739;28;20040;-86
2021/12/28 00:55:56;;;;;;;1.10;1.08;;;3.50;99.90;;;;;;5040380;28;20052;-86
2021/12/28 00:58:22;;;;;;;0.95;0.95;;;3.50;99.90;;;;;;5041566;28;20051;-87
2021/12/28 01:00:49;;;;;;;1.65;1.10;;;3.60;99.90;;;;;;5044037;28;20063;-89
2021/12/28 01:03:16;;;;;;;1.77;1.65;;;3.50;99.90;;;;;;5039823;28;20045;-88
2021/12/28 01:05:42;;;;;;;20.48;1.70;;;3.60;99.90;;;;;;5063836;28;20033;-87
2021/12/28 01:08:09;;;;;;;1.02;0.98;;;3.60;99.90;;;;;;5044763;28;20139;-88
2021/12/28 01:10:41;;;;;;;1.42;1.33;;;3.60;99.90;;;;;;5044095;28;20044;-88
2021/12/28 01:13:07;;;;;;;1.10;1.10;;;3.60;99.90;;;;;;5055171;28;20523;-88
2021/12/28 01:15:33;;;;;;;1.08;1.08;;;3.50;99.90;;;;;;5061652;28;20070;-87
2021/12/28 01:17:59;;;;;;;0.80;0.80;;;3.50;99.90;;;;;;5060130;28;20037;-87
2021/12/28 01:20:25;;;;;;;1.85;1.33;;;3.60;99.90;;;;;;5042097;28;20146;-88
2021/12/28 01:22:52;;;;;;;0.70;0.70;;;3.60;99.90;;;;;;5059079;28;20029;-88
2021/12/28 01:25:18;;;;;;;1.20;1.10;;;3.60;99.90;;;;;;5062269;28;20064;-88
2021/12/28 01:27:44;;;;;;;0.88;0.88;;;3.60;99.90;;;;;;5044230;28;20068;-86
2021/12/28 01:30:12;;;;;;;0.90;0.90;;;3.70;99.90;;;;;;5052286;28;20217;-88
2021/12/28 01:32:38;;;;;;;1.30;1.20;;;3.70;99.90;;;;;;5040784;28;20075;-86
2021/12/28 01:35:07;;;;;;;0.98;0.98;;;3.70;99.90;;;;;;5053322;28;20037;-87
2021/12/28 01:37:33;;;;;;;0.90;0.90;;;3.70;99.90;;;;;;5042482;28;20037;-88
2021/12/28 01:39:59;;;;;;;0.85;0.85;;;3.80;99.90;;;;;;5039775;28;20036;-88
2021/12/28 01:42:24;;;;;;;1.00;1.00;;;3.80;99.90;;;;;;5041486;28;20212;-88
2021/12/28 01:44:50;;;;;;;2.13;1.33;;;3.80;99.90;;;;;;5040239;28;20037;-88
2021/12/28 01:47:17;;;;;;;0.80;0.80;;;3.90;99.90;;;;;;5041145;28;20065;-88
2021/12/28 01:49:43;;;;;;;1.02;1.00;;;3.90;99.90;;;;;;5042236;28;20036;-89
2021/12/28 01:52:09;;;;;;;0.80;0.80;;;4.00;99.90;;;;;;5036965;28;20040;-88
2021/12/28 01:54:35;;;;;;;2.35;1.20;;;4.00;99.90;;;;;;5038454;28;20183;-88
2021/12/28 01:57:00;;;;;;;0.80;0.80;;;4.00;99.90;;;;;;5055689;28;20044;-89
2021/12/28 01:59:26;;;;;;;1.30;1.23;;;4.00;99.90;;;;;;5036758;28;20039;-88
2021/12/28 02:01:52;;;;;;;0.80;0.80;;;4.00;99.90;;;;;;5041623;28;20045;-87
2021/12/28 02:04:20;;;;;;;0.85;0.85;;;4.00;99.90;;;;;;5036733;28;20040;-87
2021/12/28 02:06:50;;;;;;;0.80;0.80;;;4.00;99.90;;;;;;5038953;28;20036;-88
2021/12/28 02:09:16;;;;;;;0.85;0.85;;;4.00;99.90;;;;;;5050630;28;20053;-87
2021/12/28 02:11:43;;;;;;;1.00;1.00;;;4.10;99.90;;;;;;5039064;28;20093;-88
2021/12/28 02:14:09;;;;;;;3.90;1.20;;;4.10;99.90;;;;;;5038994;28;20084;-89
2021/12/28 02:16:40;;;;;;;1.00;1.00;;;4.10;99.90;;;;;;5043236;28;20147;-88
2021/12/28 02:19:08;;;;;;;0.80;0.80;;;4.10;99.90;;;;;;5043448;28;20044;-88
2021/12/28 02:21:35;;;;;;;1.10;1.10;;;4.20;99.90;;;;;;5045489;28;20088;-89
2021/12/28 02:24:02;;;;;;;0.77;0.75;;;4.20;99.90;;;;;;5056439;28;20052;-88
2021/12/28 02:26:28;;;;;;;1.00;0.98;;;4.20;99.90;;;;;;5051511;28;20046;-87
2021/12/28 02:28:54;;;;;;;0.80;0.80;;;4.20;99.90;;;;;;5041460;28;20045;-87
2021/12/28 02:31:20;;;;;;;0.70;0.70;;;4.30;99.90;;;;;;5057299;28;20135;-88
2021/12/28 02:33:49;;;;;;;1.33;1.25;;;4.30;99.90;;;;;;5043230;28;20244;-88
2021/12/28 02:36:15;;;;;;;0.88;0.88;;;4.30;99.90;;;;;;5058295;28;20067;-87
2021/12/28 02:38:42;;;;;;;1.77;1.65;;;4.30;99.90;;;;;;5044418;28;20151;-87
2021/12/28 02:41:09;;;;;;;1.30;1.17;;;4.30;99.90;;;;;;5050623;28;20045;-86
2021/12/28 02:43:35;;;;;;;3.83;3.47;;;4.30;99.90;;;;;;5043816;28;20043;-87
2021/12/28 02:46:03;;;;;;;1.30;1.20;;;4.30;99.90;;;;;;5076584;28;20101;-88
2021/12/28 02:48:29;;;;;;;0.90;0.90;;;4.30;99.90;;;;;;5047270;28;20056;-87
2021/12/28 02:51:07;;;;;;;1.08;1.08;;;4.40;99.90;;;;;;5073440;28;20071;-88
2021/12/28 02:53:33;;;;;;;0.93;0.90;;;4.40;99.90;;;;;;5043705;28;20191;-88
2021/12/28 02:56:05;;;;;;;1.00;1.00;;;4.40;99.90;;;;;;5049729;28;20088;-88
2021/12/28 03:01:53;;;;;;;0.90;0.90;;;4.40;99.90;;;;;;5028880;28;20072;-86
2021/12/28 03:04:20;;;;;;;1.02;1.02;;;4.50;99.90;;;;;;5047266;28;20045;-88
2021/12/28 03:06:46;;;;;;;1.05;0.95;;;4.40;99.90;;;;;;5059271;28;20455;-88
2021/12/28 03:09:11;;;;;;;0.80;0.80;;;4.50;99.90;;;;;;5055375;28;20107;-87
2021/12/28 03:11:37;;;;;;;1.85;1.00;;;4.50;99.90;;;;;;5042106;28;20037;-88
2021/12/28 03:14:04;;;;;;;1.00;1.00;;;4.50;99.90;;;;;;5042587;28;20036;-88
2021/12/28 03:16:31;;;;;;;0.80;0.80;;;4.50;99.90;;;;;;5069205;28;20049;-88
2021/12/28 03:18:57;;;;;;;2.80;1.25;;;4.50;99.90;;;;;;5039850;28;20037;-88
2021/12/28 03:21:24;;;;;;;1.10;1.00;;;4.50;99.90;;;;;;5044250;28;20633;-88
2021/12/28 03:23:51;;;;;;;2.75;1.75;;;4.50;99.90;;;;;;5063773;28;20117;-88
2021/12/28 03:26:17;;;;;;;0.98;0.90;;;4.60;99.90;;;;;;5062623;28;20071;-88
2021/12/28 03:28:44;;;;;;;1.33;1.23;;;4.60;99.90;;;;;;5047347;28;20151;-88
2021/12/28 03:31:14;;;;;;;0.90;0.90;;;4.70;99.90;;;;;;5046054;28;20037;-88
2021/12/28 03:33:42;;;;;;;0.90;0.90;;;4.70;99.90;;;;;;5046438;28;20052;-88
2021/12/28 03:36:09;;;;;;;0.80;0.80;;;4.70;99.90;;;;;;5044933;28;20110;-88
2021/12/28 03:38:38;;;;;;;1.38;1.27;;;4.70;99.90;;;;;;5039829;28;20065;-88
2021/12/28 03:41:07;;;;;;;1.40;1.30;;;4.70;99.90;;;;;;5051349;28;20049;-88
2021/12/28 03:43:35;;;;;;;1.00;0.98;;;4.70;99.90;;;;;;5044596;28;20045;-88
2021/12/28 03:46:01;;;;;;;0.90;0.90;;;4.70;99.90;;;;;;5045376;28;20056;-88
2021/12/28 03:48:26;;;;;;;1.35;1.25;;;4.80;99.90;;;;;;5063486;28;20041;-88
2021/12/28 03:50:52;;;;;;;1.00;1.00;;;4.80;99.90;;;;;;5043560;28;20063;-88
2021/12/28 03:53:18;;;;;;;1.15;1.05;;;4.80;99.90;;;;;;5058436;28;20037;-87
2021/12/28 03:55:43;;;;;;;0.70;0.70;;;4.80;99.90;;;;;;5063223;28;20033;-87
2021/12/28 03:58:09;;;;;;;0.98;0.98;;;4.80;99.90;;;;;;5047303;28;20052;-88
2021/12/28 04:00:40;;;;;;;1.13;1.10;;;4.90;99.90;;;;;;5059388;28;20056;-88
2021/12/28 04:03:06;;;;;;;0.80;0.80;;;4.80;99.90;;;;;;5040893;28;20124;-88
2021/12/28 04:05:32;;;;;;;1.40;1.27;;;4.80;99.90;;;;;;5045952;28;20051;-88
2021/12/28 04:07:57;;;;;;;1.65;1.55;;;4.90;99.90;;;;;;5051742;28;20073;-88
2021/12/28 04:10:31;;;;;;;1.17;1.10;;;4.90;99.90;;;;;;5045824;28;20033;-88
2021/12/28 04:12:57;;;;;;;0.75;0.75;;;4.90;99.90;;;;;;5053000;28;20041;-88
2021/12/28 04:15:23;;;;;;;2.03;1.83;;;4.90;99.90;;;;;;5046356;28;20048;-88
2021/12/28 04:17:49;;;;;;;1.77;1.67;;;4.90;99.90;;;;;;5044551;28;20076;-87
2021/12/28 04:20:18;;;;;;;1.02;0.95;;;4.90;99.90;;;;;;5042674;28;20033;-88
2021/12/28 04:22:44;;;;;;;1.42;1.30;;;5.00;99.90;;;;;;5057883;28;20647;-87
2021/12/28 04:25:12;;;;;;;0.93;0.90;;;5.00;99.90;;;;;;5060058;28;20040;-87
2021/12/28 04:27:38;;;;;;;1.60;1.42;;;5.10;99.90;;;;;;5068272;28;20056;-87
2021/12/28 04:30:09;;;;;;;2.40;1.95;;;5.10;99.90;;;;;;5062791;28;20367;-88
2021/12/28 04:32:35;;;;;;;4.80;1.75;;;5.10;99.90;;;;;;5040721;28;20141;-87
2021/12/28 04:35:01;;;;;;;0.90;0.90;;;5.10;99.90;;;;;;5059606;28;20052;-87
2021/12/28 04:37:27;;;;;;;1.38;1.27;;;5.10;99.90;;;;;;5043017;28;20037;-88
2021/12/28 04:39:52;;;;;;;1.70;1.60;;;5.10;99.90;;;;;;5045441;28;20041;-87
2021/12/28 04:42:18;;;;;;;0.80;0.80;;;5.10;99.90;;;;;;5057327;28;20079;-87
2021/12/28 04:44:46;;;;;;;1.20;1.10;;;5.20;99.90;;;;;;5054073;28;20425;-88
2021/12/28 04:47:12;;;;;;;1.02;0.95;;;5.10;99.90;;;;;;5044865;28;20855;-86
2021/12/28 04:49:37;;;;;;;1.55;1.45;;;5.20;99.90;;;;;;5062351;28;20045;-86
2021/12/28 04:52:05;;;;;;;2.72;1.67;;;5.20;99.90;;;;;;5048555;28;20052;-87
2021/12/28 04:54:30;;;;;;;1.20;1.17;;;5.20;99.90;;;;;;5062328;28;20057;-86
2021/12/28 04:56:56;;;;;;;0.80;0.80;;;5.20;99.90;;;;;;5061725;28;20063;-87
2021/12/28 04:59:22;;;;;;;7.43;1.80;;;5.30;99.90;;;;;;5062373;28;20072;-87
2021/12/28 05:01:47;;;;;;;1.77;1.55;;;5.30;99.90;;;;;;5042041;28;20136;-87
2021/12/28 05:04:13;;;;;;;2.90;1.42;;;5.30;99.90;;;;;;5045411;28;20052;-86
2021/12/28 05:06:39;;;;;;;1.25;1.15;;;5.30;99.90;;;;;;5059380;28;20065;-86
2021/12/28 05:09:07;;;;;;;1.35;1.25;;;5.40;99.90;;;;;;5045237;28;20095;-86
2021/12/28 05:11:33;;;;;;;2.25;1.65;;;5.30;99.90;;;;;;5047103;28;20064;-87
2021/12/28 05:14:00;;;;;;;0.90;0.90;;;5.30;99.90;;;;;;5045158;28;20033;-86
2021/12/28 05:16:29;;;;;;;5.18;1.75;;;5.40;99.90;;;;;;5060806;28;20045;-87
2021/12/28 05:18:55;;;;;;;1.33;1.23;;;5.40;99.90;;;;;;5061474;28;20072;-87
2021/12/28 05:21:20;;;;;;;1.42;1.33;;;5.50;99.90;;;;;;5041698;28;20520;-88
2021/12/28 05:23:46;;;;;;;2.22;2.10;;;5.40;99.90;;;;;;5043558;28;20045;-88
2021/12/28 05:26:12;;;;;;;1.48;1.38;;;5.40;99.90;;;;;;5061910;28;20552;-88
2021/12/28 05:28:37;;;;;;;1.42;1.33;;;5.40;99.90;;;;;;5042914;28;20039;-86
2021/12/28 05:31:03;;;;;;;1.20;1.10;;;5.40;99.90;;;;;;5044486;28;20044;-85
2021/12/28 05:33:28;;;;;;;1.63;1.52;;;5.40;99.90;;;;;;5073667;28;20033;-86
2021/12/28 05:35:54;;;;;;;1.52;1.42;;;5.40;99.90;;;;;;5056927;28;20072;-87
2021/12/28 05:38:20;;;;;;;1.23;1.13;;;5.30;99.90;;;;;;5038969;28;20128;-87
2021/12/28 05:40:46;;;;;;;2.35;1.50;;;5.30;99.90;;;;;;5042940;28;20053;-88
2021/12/28 05:43:14;;;;;;;1.63;1.30;;;5.30;99.90;;;;;;5044158;28;20048;-87
2021/12/28 05:45:40;;;;;;;1.38;1.33;;;5.20;99.90;;;;;;5077486;28;20059;-88
2021/12/28 05:48:05;;;;;;;1.08;1.08;;;5.20;99.90;;;;;;5051866;28;20060;-85
2021/12/28 05:50:31;;;;;;;0.85;0.85;;;5.20;99.90;;;;;;5064764;28;20020;-88
2021/12/28 05:52:57;;;;;;;2.75;2.50;;;5.20;99.90;;;;;;5054789;28;20040;-88
2021/12/28 05:55:22;;;;;;;3.25;1.38;;;5.20;99.90;;;;;;5068729;28;20041;-87
2021/12/28 05:57:48;;;;;;;1.30;1.20;;;5.10;99.90;;;;;;5057986;28;20041;-88
2021/12/28 06:00:14;;;;;;;1.85;1.75;;;5.10;99.90;;;;;;5041206;28;20063;-88
2021/12/28 06:02:40;;;;;;;0.90;0.90;;;5.10;99.90;;;;;;5061618;28;20059;-88
2021/12/28 06:05:06;;;;;;;1.80;1.48;;;5.10;99.90;;;;;;5056030;28;20025;-86
2021/12/28 06:07:31;;;;;;;1.48;1.38;;;5.10;99.90;;;;;;5054498;28;20045;-86
2021/12/28 06:09:57;;;;;;;1.60;1.42;;;5.10;99.90;;;;;;5053885;28;20047;-86
2021/12/28 06:12:23;;;;;;;1.00;1.00;;;5.00;99.90;;;;;;5051490;28;20045;-86
2021/12/28 06:14:50;;;;;;;1.55;1.45;;;4.90;99.90;;;;;;5044094;28;20044;-86
2021/12/28 06:17:16;;;;;;;1.45;1.35;;;5.00;99.90;;;;;;5055109;28;20064;-86
2021/12/28 06:19:41;;;;;;;2.05;1.38;;;4.90;99.90;;;;;;5052053;28;20106;-87
2021/12/28 06:22:08;;;;;;;1.48;1.25;;;4.90;99.90;;;;;;5058047;28;20060;-87
2021/12/28 06:24:33;;;;;;;1.55;1.45;;;4.90;99.90;;;;;;5059340;28;20051;-87
2021/12/28 06:26:59;;;;;;;1.35;1.25;;;4.90;99.90;;;;;;5060442;28;20128;-86
2021/12/28 06:29:25;;;;;;;1.15;1.05;;;4.90;99.90;;;;;;5060759;28;20048;-86
2021/12/28 06:31:50;;;;;;;1.85;1.52;;;4.80;99.90;;;;;;5047873;28;20052;-86
2021/12/28 06:34:16;;;;;;;1.25;1.20;;;4.80;99.90;;;;;;5060053;28;20081;-86
2021/12/28 06:36:43;;;;;;;1.10;1.08;;;4.80;99.90;;;;;;5050173;28;20037;-88
2021/12/28 06:39:10;;;;;;;2.47;2.28;;;4.80;99.90;;;;;;5040608;28;20124;-87
2021/12/28 06:41:35;;;;;;;1.10;1.05;;;4.80;99.90;;;;;;5042937;28;20075;-87
2021/12/28 06:44:01;;;;;;;1.45;1.35;;;4.80;99.90;;;;;;5042926;28;20385;-88
2021/12/28 06:46:27;;;;;;;1.38;1.27;;;4.80;99.90;;;;;;5041191;28;20045;-87
2021/12/28 06:48:53;;;;;;;3.10;2.20;;;4.80;99.90;;;;;;5056033;28;20136;-87
2021/12/28 06:51:18;;;;;;;1.73;1.42;;;4.80;99.90;;;;;;5047579;28;20041;-87
2021/12/28 06:53:44;;;;;;;1.40;1.30;;;4.70;99.90;;;;;;5061755;28;20037;-86
2021/12/28 06:56:10;;;;;;;0.98;0.98;;;4.80;99.90;;;;;;5047905;28;20079;-87
2021/12/28 06:58:36;;;;;;;1.20;1.20;;;4.70;99.90;;;;;;5059868;28;20049;-86
2021/12/28 07:01:02;;;;;;;1.35;1.25;;;4.70;99.90;;;;;;5061835;28;20037;-86
2021/12/28 07:03:28;;;;;;;3.25;1.58;;;4.70;99.90;;;;;;5063054;28;20096;-87
2021/12/28 07:05:53;;;;;;;4.38;1.80;;;4.70;99.90;;;;;;5046039;28;20077;-86
2021/12/28 07:08:19;;;;;;;1.67;1.40;;;4.70;99.90;;;;;;5054356;28;20044;-86
2021/12/28 07:10:45;;;;;;;0.90;0.90;;;4.60;99.90;;;;;;5059864;28;20045;-86
2021/12/28 07:13:10;;;;;;;0.93;0.93;;;4.70;99.90;;;;;;5047916;28;20049;-85
2021/12/28 07:15:36;;;;;;;1.60;1.50;;;4.60;99.90;;;;;;5061688;28;20057;-85
2021/12/28 07:18:02;;;;;;;1.55;1.45;;;4.60;99.90;;;;;;5068934;28;20049;-84
2021/12/28 07:20:28;;;;;;;1.17;1.13;;;4.60;99.90;;;;;;5045508;28;20044;-88
2021/12/28 07:22:53;;;;;;;2.63;2.17;;;4.60;99.90;;;;;;5053859;28;20512;-85
2021/12/28 07:25:19;;;;;;;1.10;0.85;;;4.60;99.90;;;;;;5064544;28;20057;-85
2021/12/28 07:27:45;;;;;;;1.67;1.50;;;4.50;99.90;;;;;;5045529;28;20041;-85
2021/12/28 07:30:12;;;;;;;1.38;1.27;;;4.60;99.90;;;;;;5059385;28;20092;-87
2021/12/28 07:32:38;;;;;;;1.92;1.73;;;4.60;99.90;;;;;;5061693;28;20048;-86
2021/12/28 07:35:05;;;;;;;1.38;1.27;;;4.60;99.90;;;;;;5046240;28;20425;-86
2021/12/28 07:37:31;;;;;;;1.10;1.10;;;4.70;99.90;;;;;;5056230;28;20076;-86
2021/12/28 07:39:56;;;;;;;0.80;0.80;;;4.60;99.90;;;;;;5046284;28;20037;-86
2021/12/28 07:42:22;;;;;;;1.20;1.10;;;4.70;99.90;;;;;;5055588;28;20041;-86
2021/12/28 07:44:49;;;;;;;1.02;1.02;;;4.70;99.90;;;;;;5044962;28;20128;-86
2021/12/28 07:47:14;;;;;;;1.40;1.30;;;4.80;99.90;;;;;;5044801;28;20036;-86
2021/12/28 07:49:40;;;;;;;0.70;0.70;;;4.80;99.90;;;;;;5060177;28;20065;-86
2021/12/28 07:52:06;;;;;;;0.70;0.70;;;4.80;99.90;;;;;;5056386;28;20044;-85
2021/12/28 07:54:31;;;;;;;0.98;0.98;;;4.80;99.90;;;;;;5061986;28;20086;-86
2021/12/28 07:56:57;;;;;;;0.80;0.80;;;4.80;99.90;;;;;;5055686;28;20045;-86
2021/12/28 07:59:23;;;;;;;1.23;1.15;;;4.80;99.90;;;;;;5045988;28;20062;-85
2021/12/28 08:01:49;;;;;;;1.20;1.10;;;4.80;99.90;;;;;;5057828;28;20045;-86
2021/12/28 08:04:15;;;;;;;1.00;0.95;;;4.70;99.90;;;;;;5062698;28;20151;-86
2021/12/28 08:06:40;;;;;;;0.90;0.90;;;4.70;99.90;;;;;;5054742;28;20037;-86
2021/12/28 08:09:06;;;;;;;0.95;0.90;;;4.60;99.90;;;;;;5052283;28;20101;-87
2021/12/28 08:11:34;;;;;;;0.77;0.77;;;4.60;99.90;;;;;;5058848;28;20052;-85
2021/12/28 08:13:59;;;;;;;0.70;0.70;;;4.70;99.90;;;;;;5045877;28;20239;-86
2021/12/28 08:16:25;;;;;;;1.10;1.05;;;4.60;99.90;;;;;;5061018;28;20148;-85
2021/12/28 08:18:50;;;;;;;0.80;0.80;;;4.70;99.90;;;;;;5061821;28;20037;-86
2021/12/28 08:21:16;;;;;;;0.80;0.80;;;4.60;99.90;;;;;;5045892;28;20470;-85
2021/12/28 08:23:42;;;;;;;0.88;0.88;;;4.60;99.90;;;;;;5057609;28;20044;-85
2021/12/28 08:26:08;;;;;;;1.35;1.25;;;4.60;99.90;;;;;;5061149;28;20244;-85
2021/12/28 08:28:34;;;;;;;1.48;1.17;;;4.70;99.90;;;;;;5053887;28;20420;-88
2021/12/28 08:31:00;;;;;;;1.50;1.40;;;4.80;99.90;;;;;;5057391;28;20203;-89
2021/12/28 08:33:28;;;;;;;0.80;0.80;;;4.80;99.90;;;;;;5033740;28;20393;-88
2021/12/28 08:35:54;;;;;;;0.80;0.80;;;4.80;99.90;;;;;;5048881;28;20057;-89
2021/12/28 08:38:20;;;;;;;0.80;0.80;;;4.90;99.90;;;;;;5043679;28;20033;-87
2021/12/28 08:40:46;;;;;;;1.80;1.70;;;4.90;99.90;;;;;;5055705;28;20078;-86
2021/12/28 08:43:12;;;;;;;1.45;1.35;;;5.00;99.90;;;;;;5053968;28;20105;-88
2021/12/28 08:45:40;;;;;;;0.80;0.80;;;5.00;99.90;;;;;;5041660;28;20034;-87
2021/12/28 08:48:06;;;;;;;0.70;0.70;;;5.00;99.90;;;;;;5041643;28;20037;-87
2021/12/28 08:50:32;;;;;;;0.80;0.80;;;5.10;99.90;;;;;;5034042;28;20060;-87
2021/12/28 08:52:58;;;;;;;0.80;0.80;;;5.10;99.90;;;;;;5040897;28;20037;-86
2021/12/28 08:55:24;;;;;;;0.70;0.70;;;5.20;99.90;;;;;;5042763;28;20036;-87
2021/12/28 08:57:51;;;;;;;0.90;0.90;;;5.30;99.90;;;;;;5057720;28;20076;-87
2021/12/28 09:00:25;;;;;;;0.60;0.60;;;5.30;99.90;;;;;;5041347;28;20041;-87
2021/12/28 09:02:52;;;;;;;0.70;0.70;;;5.30;99.90;;;;;;5041658;28;20044;-88
2021/12/28 09:05:18;;;;;;;0.70;0.70;;;5.40;99.90;;;;;;5036692;28;20541;-89
2021/12/28 09:07:44;;;;;;;0.90;0.90;;;5.40;99.90;;;;;;5051612;28;20077;-89
2021/12/28 09:10:10;;;;;;;0.77;0.77;;;5.50;99.90;;;;;;5044796;28;20040;-89
2021/12/28 09:12:37;;;;;;;0.82;0.82;;;5.50;99.90;;;;;;5043983;28;20109;-88
2021/12/28 09:15:05;;;;;;;0.70;0.70;;;5.50;99.90;;;;;;5043613;28;20512;-88
2021/12/28 09:17:33;;;;;;;0.70;0.70;;;5.50;99.90;;;;;;5052439;28;20067;-89
2021/12/28 09:19:59;;;;;;;2.05;1.23;;;5.50;99.90;;;;;;5052333;28;20372;-88
2021/12/28 09:22:24;;;;;;;0.85;0.85;;;5.60;99.90;;;;;;5039772;28;20057;-89
2021/12/28 09:24:50;;;;;;;1.13;1.08;;;5.60;99.90;;;;;;5037881;28;20072;-88
2021/12/28 09:27:15;;;;;;;0.70;0.70;;;5.60;99.90;;;;;;5036563;28;20033;-89
2021/12/28 09:29:43;;;;;;;1.20;1.10;;;5.70;99.90;;;;;;5041674;28;20037;-89
2021/12/28 09:32:09;;;;;;;0.80;0.80;;;5.70;99.90;;;;;;5059585;28;20080;-88
2021/12/28 09:34:34;;;;;;;0.93;0.90;;;5.80;99.90;;;;;;5059965;28;20049;-89
2021/12/28 09:37:00;;;;;;;0.60;0.60;;;5.80;99.90;;;;;;5043170;28;20045;-89
2021/12/28 09:39:28;;;;;;;0.65;0.65;;;5.90;99.90;;;;;;5042430;28;20090;-88
2021/12/28 09:42:01;;;;;;;1.08;1.00;;;5.90;99.90;;;;;;5036704;28;20042;-89
2021/12/28 09:44:28;;;;;;;1.15;0.93;;;5.90;99.90;;;;;;5038749;28;20044;-89
2021/12/28 09:46:54;;;;;;;11.65;1.48;;;5.90;99.90;;;;;;5057274;28;20564;-89
2021/12/28 09:49:19;;;;;;;0.70;0.70;;;5.90;99.90;;;;;;5043748;28;20044;-88
2021/12/28 09:51:45;;;;;;;0.60;0.60;;;5.90;99.90;;;;;;5037824;28;20051;-89
2021/12/28 09:54:11;;;;;;;1.45;1.17;;;6.00;99.90;;;;;;5041551;28;20037;-88
2021/12/28 09:56:37;;;;;;;2.15;1.15;;;6.00;99.90;;;;;;5042496;28;20061;-88
2021/12/28 09:59:04;;;;;;;0.80;0.80;;;6.00;99.90;;;;;;5055030;28;20037;-89
2021/12/28 10:01:30;;;;;;;1.75;1.65;;;6.00;99.90;;;;;;5052019;28;20034;-87
2021/12/28 10:03:57;;;;;;;0.60;0.60;;;6.00;99.90;;;;;;5037505;28;20051;-88
2021/12/28 10:06:29;;;;;;;0.98;0.98;;;6.10;99.90;;;;;;5053790;28;20041;-90
2021/12/28 10:09:05;;;;;;;2.47;1.67;;;6.20;99.90;;;;;;5058358;28;20068;-89
2021/12/28 10:11:36;;;;;;;0.70;0.70;;;6.20;99.90;;;;;;5036489;28;20084;-88
2021/12/28 10:14:15;;;;;;;0.95;0.95;;;6.20;99.90;;;;;;5042015;28;20059;-89
2021/12/28 10:16:53;;;;;;;0.80;0.80;;;6.20;99.90;;;;;;5053605;28;20040;-88
2021/12/28 10:19:45;;;;;;;0.63;0.63;;;6.20;99.90;;;;;;5043891;28;20120;-89
2021/12/28 10:22:29;;;;;;;0.70;0.70;;;6.20;99.90;;;;;;5063671;28;20092;-89
2021/12/28 10:25:14;;;;;;;0.70;0.70;;;6.20;99.90;;;;;;5062056;28;20037;-89
2021/12/28 10:27:45;;;;;;;0.85;0.85;;;6.30;99.90;;;;;;5057260;28;20044;-87
2021/12/28 10:30:34;;;;;;;0.77;0.77;;;6.30;99.90;;;;;;5038555;28;20044;-89
2021/12/28 10:33:03;;;;;;;0.77;0.77;;;6.30;99.90;;;;;;5057128;28;20055;-88
2021/12/28 10:35:35;;;;;;;0.88;0.88;;;6.30;99.90;;;;;;5051987;28;20643;-88
2021/12/28 10:38:08;;;;;;;0.73;0.73;;;6.30;99.90;;;;;;5042822;28;20056;-87
2021/12/28 10:40:45;;;;;;;0.60;0.60;;;6.40;99.90;;;;;;5059223;28;20052;-88
2021/12/28 10:43:11;;;;;;;0.65;0.65;;;6.40;99.90;;;;;;5044126;28;20044;-89
2021/12/28 10:45:43;;;;;;;0.70;0.70;;;6.40;99.90;;;;;;5046872;28;20071;-87
2021/12/28 10:48:15;;;;;;;0.77;0.77;;;6.40;99.90;;;;;;5044894;28;20136;-88
2021/12/28 10:51:00;;;;;;;3.92;1.80;;;6.40;99.90;;;;;;5040495;28;20056;-89
2021/12/28 10:53:38;;;;;;;3.35;1.23;;;6.40;99.90;;;;;;5060480;28;20159;-88
2021/12/28 10:56:08;;;;;;;0.75;0.73;;;6.40;99.90;;;;;;5043346;28;20123;-89
2021/12/28 10:58:41;;;;;;;1.05;1.00;;;6.50;99.90;;;;;;5039423;28;20075;-89
2021/12/28 11:01:23;;;;;;;0.82;0.82;;;6.50;99.90;;;;;;5049520;28;20075;-89
2021/12/28 11:03:54;;;;;;;0.73;0.73;;;6.50;99.90;;;;;;5058391;28;20084;-89
2021/12/28 11:06:28;;;;;;;0.60;0.60;;;6.50;99.90;;;;;;5059395;28;20045;-90
2021/12/28 11:09:22;;;;;;;0.95;0.93;;;6.50;99.90;;;;;;5043541;28;20051;-90
2021/12/28 11:11:49;;;;;;;0.90;0.90;;;6.60;99.90;;;;;;5038716;28;20087;-88
2021/12/28 11:14:18;;;;;;;0.80;0.80;;;6.60;99.90;;;;;;5043795;28;20037;-89
2021/12/28 11:16:55;;;;;;;0.70;0.70;;;6.60;99.90;;;;;;5042610;28;20084;-89
2021/12/28 11:19:29;;;;;;;0.60;0.60;;;6.60;99.90;;;;;;5039198;28;20034;-89
2021/12/28 11:22:05;;;;;;;1.15;0.88;;;6.60;99.90;;;;;;5055998;28;20081;-89
2021/12/28 11:24:33;;;;;;;0.70;0.70;;;6.60;99.90;;;;;;5060155;28;20033;-89
2021/12/28 11:26:59;;;;;;;0.65;0.65;;;6.70;99.90;;;;;;5043563;28;20094;-88
2021/12/28 11:29:36;;;;;;;0.98;0.98;;;6.70;99.90;;;;;;5057756;28;20094;-89
2021/12/28 11:32:06;;;;;;;3.60;1.33;;;6.70;99.90;;;;;;5058702;28;20453;-89
2021/12/28 11:34:37;;;;;;;0.60;0.60;;;6.70;99.90;;;;;;5043574;28;20069;-88
2021/12/28 11:37:04;;;;;;;0.95;0.95;;;6.70;99.90;;;;;;5037953;28;20036;-89
2021/12/28 11:39:39;;;;;;;0.68;0.68;;;6.70;99.90;;;;;;5043847;28;20029;-89
2021/12/28 11:42:07;;;;;;;0.60;0.60;;;6.80;99.90;;;;;;5043918;28;20069;-89
2021/12/28 11:44:34;;;;;;;0.65;0.65;;;6.80;99.90;;;;;;5046978;28;20098;-88
2021/12/28 11:47:03;;;;;;;0.80;0.80;;;6.80;99.90;;;;;;5038690;28;20037;-89
2021/12/28 11:49:29;;;;;;;0.60;0.60;;;6.80;99.90;;;;;;5051233;28;20105;-87
2021/12/28 11:52:00;;;;;;;0.70;0.70;;;6.90;99.90;;;;;;5048816;28;20109;-89
2021/12/28 11:54:28;;;;;;;1.10;1.10;;;6.90;99.90;;;;;;5042252;28;20069;-88
2021/12/28 11:56:59;;;;;;;1.10;1.02;;;6.90;99.90;;;;;;5046431;28;20044;-88
2021/12/28 11:59:28;;;;;;;0.70;0.70;;;6.90;99.90;;;;;;5063896;28;20055;-89
2021/12/28 12:02:04;;;;;;;0.60;0.60;;;6.90;99.90;;;;;;5045280;28;20033;-86
2021/12/28 12:04:29;;;;;;;0.82;0.82;;;6.90;99.90;;;;;;5039687;28;20066;-88
2021/12/28 12:07:16;;;;;;;0.80;0.80;;;6.90;99.90;;;;;;5060641;28;20064;-89
2021/12/28 12:09:51;;;;;;;0.93;0.90;;;6.90;99.90;;;;;;5046279;28;20057;-88
2021/12/28 12:12:43;;;;;;;0.57;0.57;;;6.90;99.90;;;;;;5046327;28;20037;-89
2021/12/28 12:15:11;;;;;;;0.77;0.77;;;7.00;99.90;;;;;;5042134;28;20067;-88
2021/12/28 12:17:45;;;;;;;0.70;0.70;;;7.00;99.90;;;;;;5044954;28;20085;-88
2021/12/28 12:20:17;;;;;;;0.70;0.70;;;7.00;99.90;;;;;;5040861;28;20033;-88
2021/12/28 12:23:07;;;;;;;1.00;1.00;;;7.00;99.90;;;;;;5060498;28;20068;-87
2021/12/28 12:25:46;;;;;;;0.70;0.70;;;7.00;99.90;;;;;;5062071;28;20113;-87
2021/12/28 12:28:13;;;;;;;0.65;0.65;;;7.00;99.90;;;;;;5046131;28;20096;-87
2021/12/28 12:30:51;;;;;;;0.75;0.73;;;7.00;99.90;;;;;;5039818;28;20071;-87
2021/12/28 12:33:17;;;;;;;0.70;0.70;;;7.00;99.90;;;;;;5041547;28;20078;-88
2021/12/28 12:35:48;;;;;;;0.68;0.68;;;7.00;99.90;;;;;;5045453;28;20044;-87
2021/12/28 12:38:14;;;;;;;0.60;0.60;;;7.00;99.90;;;;;;5059910;28;20041;-87
2021/12/28 12:41:02;;;;;;;0.63;0.63;;;7.10;99.90;;;;;;5045799;28;20103;-87
2021/12/28 12:43:37;;;;;;;0.60;0.60;;;7.10;99.90;;;;;;5060243;28;20484;-88
2021/12/28 12:46:05;;;;;;;0.65;0.65;;;7.10;99.90;;;;;;5061237;28;20079;-88
2021/12/28 12:48:36;;;;;;;0.70;0.70;;;7.10;99.90;;;;;;5045072;28;20140;-88
2021/12/28 12:51:24;;;;;;;0.70;0.70;;;7.20;99.90;;;;;;5050571;28;20158;-88
2021/12/28 12:54:16;;;;;;;0.98;0.98;;;7.20;99.90;;;;;;5054512;28;20049;-87
2021/12/28 12:56:54;;;;;;;0.60;0.60;;;7.20;99.90;;;;;;5043819;28;20044;-88
2021/12/28 12:59:30;;;;;;;0.60;0.60;;;7.20;99.90;;;;;;5066266;28;20041;-88
2021/12/28 13:01:58;;;;;;;0.60;0.60;;;7.20;99.90;;;;;;5038122;28;20068;-88
2021/12/28 13:04:26;;;;;;;0.80;0.80;;;7.20;99.90;;;;;;5060258;28;20091;-89
2021/12/28 13:06:58;;;;;;;0.70;0.70;;;7.20;99.90;;;;;;5057738;28;20037;-89
2021/12/28 13:09:24;;;;;;;1.17;1.13;;;7.30;99.90;;;;;;5054454;28;20071;-88